RYR946 EPKK-LOWW
Flight info
| Callsign | RYR946 |
|---|---|
| Flight time | 1h 10m |
| Altitude | 24000 |
| Route | BABKO DCT VADEX DCT BABNI DCT TUTPI P182 REKLU REKLU3W |
| Aircraft | B38M/M-SDE1FGHILORVWXY/HB1 |
Departure
| Time | 2026-05-06 19:34 |
|---|---|
| Airport | Kraków John Paul II International Airport (EPKK) |
Arrival
| Time | 2026-05-06 20:44 |
|---|---|
| Airport | Vienna International Airport (LOWW) |
| Time | Latitude | Longitude | Altitude | Speed | Heading |
|---|---|---|---|---|---|
| 2026-05-06 19:05 | 50.07479 | 19.80077 | 802 ft | 0 kts | 168° |
| 2026-05-06 19:06 | 50.07475 | 19.80079 | 802 ft | 0 kts | 168° |
| 2026-05-06 19:28 | 50.07471 | 19.80080 | 802 ft | 2 kts | 168° |
| 2026-05-06 19:28 | 50.07429 | 19.80095 | 802 ft | 10 kts | 159° |
| 2026-05-06 19:29 | 50.07423 | 19.80192 | 802 ft | 11 kts | 78° |
| 2026-05-06 19:29 | 50.07440 | 19.80320 | 802 ft | 13 kts | 76° |
| 2026-05-06 19:29 | 50.07513 | 19.80399 | 802 ft | 14 kts | 17° |
| 2026-05-06 19:29 | 50.07617 | 19.80413 | 802 ft | 16 kts | 348° |
| 2026-05-06 19:30 | 50.07728 | 19.80376 | 802 ft | 17 kts | 347° |
| 2026-05-06 19:30 | 50.07823 | 19.80344 | 802 ft | 6 kts | 347° |
| 2026-05-06 19:30 | 50.07833 | 19.80341 | 803 ft | 0 kts | 347° |
| 2026-05-06 19:32 | 50.07839 | 19.80339 | 803 ft | 3 kts | 347° |
| 2026-05-06 19:32 | 50.07895 | 19.80320 | 802 ft | 13 kts | 347° |
| 2026-05-06 19:32 | 50.07995 | 19.80282 | 802 ft | 16 kts | 332° |
| 2026-05-06 19:33 | 50.08002 | 19.80131 | 803 ft | 15 kts | 259° |
| 2026-05-06 19:33 | 50.07969 | 19.79880 | 802 ft | 51 kts | 258° |
| 2026-05-06 19:33 | 50.07835 | 19.78923 | 804 ft | 126 kts | 258° |
| 2026-05-06 19:33 | 50.07607 | 19.77284 | 892 ft | 176 kts | 258° |
| 2026-05-06 19:34 | 50.07339 | 19.75369 | 1524 ft | 188 kts | 256° |
| 2026-05-06 19:34 | 50.07042 | 19.73332 | 2318 ft | 195 kts | 253° |
| 2026-05-06 19:34 | 50.06742 | 19.71210 | 3007 ft | 206 kts | 254° |
| 2026-05-06 19:34 | 50.06437 | 19.68991 | 3336 ft | 218 kts | 253° |
| 2026-05-06 19:35 | 50.06210 | 19.67427 | 3584 ft | 225 kts | 250° |
| 2026-05-06 19:35 | 50.05404 | 19.65483 | 4689 ft | 211 kts | 223° |
| 2026-05-06 19:35 | 50.04553 | 19.63600 | 5571 ft | 222 kts | 248° |
| 2026-05-06 19:35 | 50.04386 | 19.61166 | 6481 ft | 231 kts | 265° |
| 2026-05-06 19:36 | 50.04434 | 19.58647 | 7388 ft | 235 kts | 266° |
| 2026-05-06 19:36 | 50.04477 | 19.56078 | 8259 ft | 240 kts | 265° |
| 2026-05-06 19:36 | 50.04158 | 19.53526 | 8858 ft | 247 kts | 237° |
| 2026-05-06 19:36 | 50.02973 | 19.51544 | 9426 ft | 259 kts | 213° |
| 2026-05-06 19:37 | 50.01298 | 19.50401 | 10120 ft | 269 kts | 193° |
| 2026-05-06 19:37 | 49.99373 | 19.50194 | 10592 ft | 288 kts | 184° |
| 2026-05-06 19:37 | 49.97321 | 19.50057 | 11137 ft | 301 kts | 185° |
| 2026-05-06 19:37 | 49.95187 | 19.49879 | 11817 ft | 309 kts | 185° |
| 2026-05-06 19:38 | 49.93035 | 19.49697 | 12696 ft | 312 kts | 185° |
| 2026-05-06 19:38 | 49.90865 | 19.49510 | 13494 ft | 317 kts | 185° |
| 2026-05-06 19:38 | 49.88640 | 19.49314 | 14168 ft | 322 kts | 186° |
| 2026-05-06 19:38 | 49.86388 | 19.49117 | 14929 ft | 325 kts | 186° |
| 2026-05-06 19:39 | 49.84119 | 19.48919 | 15689 ft | 328 kts | 186° |
| 2026-05-06 19:39 | 49.81845 | 19.48722 | 16395 ft | 333 kts | 186° |
| 2026-05-06 19:39 | 49.79520 | 19.48520 | 17079 ft | 337 kts | 186° |
| 2026-05-06 19:39 | 49.77164 | 19.48316 | 17799 ft | 340 kts | 186° |
| 2026-05-06 19:40 | 49.74788 | 19.48110 | 18444 ft | 344 kts | 186° |
| 2026-05-06 19:40 | 49.72383 | 19.47904 | 19035 ft | 347 kts | 186° |
| 2026-05-06 19:40 | 49.69995 | 19.47698 | 19630 ft | 350 kts | 186° |
| 2026-05-06 19:40 | 49.67556 | 19.47489 | 20231 ft | 353 kts | 186° |
| 2026-05-06 19:41 | 49.65094 | 19.47279 | 20739 ft | 358 kts | 186° |
| 2026-05-06 19:41 | 49.62635 | 19.46748 | 21322 ft | 356 kts | 200° |
| 2026-05-06 19:41 | 49.60442 | 19.45035 | 21859 ft | 355 kts | 218° |
| 2026-05-06 19:41 | 49.58639 | 19.42465 | 22528 ft | 354 kts | 225° |
| 2026-05-06 19:42 | 49.56899 | 19.39779 | 23238 ft | 353 kts | 226° |
| 2026-05-06 19:42 | 49.55178 | 19.37057 | 23695 ft | 355 kts | 226° |
| 2026-05-06 19:42 | 49.53478 | 19.34332 | 23799 ft | 352 kts | 227° |
| 2026-05-06 19:42 | 49.51789 | 19.31603 | 23830 ft | 350 kts | 227° |
| 2026-05-06 19:43 | 49.50115 | 19.28888 | 23836 ft | 350 kts | 227° |
| 2026-05-06 19:43 | 49.48440 | 19.26168 | 23810 ft | 350 kts | 227° |
| 2026-05-06 19:43 | 49.46776 | 19.23466 | 23825 ft | 350 kts | 227° |
| 2026-05-06 19:43 | 49.45097 | 19.20742 | 23826 ft | 350 kts | 227° |
| 2026-05-06 19:44 | 49.43424 | 19.18029 | 23830 ft | 350 kts | 227° |
| 2026-05-06 19:44 | 49.41747 | 19.15314 | 23830 ft | 350 kts | 227° |
| 2026-05-06 19:44 | 49.40076 | 19.12610 | 23826 ft | 349 kts | 227° |
| 2026-05-06 19:44 | 49.38401 | 19.09902 | 23840 ft | 350 kts | 227° |
| 2026-05-06 19:45 | 49.36725 | 19.07197 | 23823 ft | 350 kts | 227° |
| 2026-05-06 19:45 | 49.35044 | 19.04486 | 23840 ft | 350 kts | 227° |
| 2026-05-06 19:45 | 49.33389 | 19.01819 | 23834 ft | 349 kts | 227° |
| 2026-05-06 19:45 | 49.31715 | 18.99124 | 23819 ft | 348 kts | 227° |
| 2026-05-06 19:46 | 49.30048 | 18.96446 | 23826 ft | 348 kts | 226° |
| 2026-05-06 19:46 | 49.28382 | 18.93770 | 23824 ft | 348 kts | 226° |
| 2026-05-06 19:46 | 49.26686 | 18.91049 | 23839 ft | 348 kts | 226° |
| 2026-05-06 19:46 | 49.25058 | 18.88374 | 23819 ft | 348 kts | 231° |
| 2026-05-06 19:47 | 49.23682 | 18.85338 | 23836 ft | 348 kts | 235° |
| 2026-05-06 19:47 | 49.22306 | 18.82278 | 23813 ft | 348 kts | 235° |
| 2026-05-06 19:47 | 49.20916 | 18.79186 | 23835 ft | 359 kts | 235° |
| 2026-05-06 19:47 | 49.19474 | 18.75982 | 23821 ft | 372 kts | 235° |
| 2026-05-06 19:48 | 49.17982 | 18.72667 | 23809 ft | 383 kts | 235° |
| 2026-05-06 19:48 | 49.16456 | 18.69280 | 23817 ft | 389 kts | 235° |
| 2026-05-06 19:48 | 49.14916 | 18.65869 | 23823 ft | 390 kts | 235° |
| 2026-05-06 19:48 | 49.13381 | 18.62472 | 23817 ft | 390 kts | 235° |
| 2026-05-06 19:49 | 49.11836 | 18.59055 | 23828 ft | 391 kts | 235° |
| 2026-05-06 19:49 | 49.10283 | 18.55629 | 23829 ft | 392 kts | 235° |
| 2026-05-06 19:49 | 49.08751 | 18.52252 | 23824 ft | 392 kts | 235° |
| 2026-05-06 19:49 | 49.07198 | 18.48831 | 23824 ft | 392 kts | 235° |
| 2026-05-06 19:50 | 49.05642 | 18.45411 | 23818 ft | 392 kts | 234° |
| 2026-05-06 19:50 | 49.04087 | 18.41995 | 23815 ft | 392 kts | 234° |
| 2026-05-06 19:50 | 49.02534 | 18.38587 | 23816 ft | 392 kts | 234° |
| 2026-05-06 19:50 | 49.00978 | 18.35181 | 23823 ft | 392 kts | 234° |
| 2026-05-06 19:51 | 48.99428 | 18.31787 | 23830 ft | 392 kts | 234° |
| 2026-05-06 19:51 | 48.97876 | 18.28395 | 23811 ft | 389 kts | 234° |
| 2026-05-06 19:51 | 48.96387 | 18.24974 | 23570 ft | 388 kts | 241° |
| 2026-05-06 19:51 | 48.95308 | 18.21196 | 23395 ft | 390 kts | 245° |
| 2026-05-06 19:52 | 48.94243 | 18.17428 | 23180 ft | 385 kts | 245° |
| 2026-05-06 19:52 | 48.93183 | 18.13688 | 22985 ft | 385 kts | 245° |
| 2026-05-06 19:52 | 48.92123 | 18.09949 | 22786 ft | 386 kts | 245° |
| 2026-05-06 19:52 | 48.91060 | 18.06205 | 22589 ft | 386 kts | 245° |
| 2026-05-06 19:53 | 48.89993 | 18.02452 | 22392 ft | 386 kts | 245° |
| 2026-05-06 19:53 | 48.88930 | 17.98720 | 22201 ft | 387 kts | 245° |
| 2026-05-06 19:53 | 48.87859 | 17.94966 | 22003 ft | 388 kts | 245° |
| 2026-05-06 19:53 | 48.86786 | 17.91208 | 21806 ft | 388 kts | 245° |
| 2026-05-06 19:54 | 48.85708 | 17.87443 | 21588 ft | 389 kts | 245° |
| 2026-05-06 19:54 | 48.84630 | 17.83681 | 21377 ft | 390 kts | 245° |
| 2026-05-06 19:54 | 48.83547 | 17.79906 | 21141 ft | 390 kts | 245° |
| 2026-05-06 19:54 | 48.82459 | 17.76124 | 20926 ft | 391 kts | 245° |
| 2026-05-06 19:55 | 48.81367 | 17.72332 | 20711 ft | 392 kts | 244° |
| 2026-05-06 19:55 | 48.80275 | 17.68544 | 20507 ft | 392 kts | 244° |
| 2026-05-06 19:55 | 48.79191 | 17.64788 | 20299 ft | 393 kts | 244° |
| 2026-05-06 19:55 | 48.78091 | 17.60985 | 20091 ft | 394 kts | 244° |
| 2026-05-06 19:56 | 48.76987 | 17.57175 | 19880 ft | 394 kts | 244° |
| 2026-05-06 19:56 | 48.75898 | 17.53422 | 19679 ft | 395 kts | 244° |
| 2026-05-06 19:56 | 48.74791 | 17.49615 | 19476 ft | 396 kts | 244° |
| 2026-05-06 19:56 | 48.73679 | 17.45792 | 19265 ft | 397 kts | 244° |
| 2026-05-06 19:57 | 48.72563 | 17.41960 | 19064 ft | 397 kts | 244° |
| 2026-05-06 19:57 | 48.71691 | 17.37992 | 18847 ft | 401 kts | 258° |
| 2026-05-06 19:57 | 48.71651 | 17.33732 | 18659 ft | 407 kts | 269° |
| 2026-05-06 19:57 | 48.71754 | 17.29495 | 18455 ft | 394 kts | 268° |
| 2026-05-06 19:58 | 48.71726 | 17.25448 | 18236 ft | 378 kts | 258° |
| 2026-05-06 19:58 | 48.70908 | 17.21784 | 18061 ft | 361 kts | 238° |
| 2026-05-06 19:58 | 48.69556 | 17.18657 | 17857 ft | 350 kts | 236° |
| 2026-05-06 19:58 | 48.68250 | 17.15609 | 17650 ft | 341 kts | 235° |
| 2026-05-06 19:59 | 48.66969 | 17.12641 | 17427 ft | 332 kts | 235° |
| 2026-05-06 19:59 | 48.65718 | 17.09757 | 17220 ft | 325 kts | 235° |
| 2026-05-06 19:59 | 48.64501 | 17.06958 | 17004 ft | 321 kts | 235° |
| 2026-05-06 19:59 | 48.63270 | 17.04131 | 16788 ft | 320 kts | 235° |
| 2026-05-06 20:00 | 48.62053 | 17.01338 | 16573 ft | 315 kts | 235° |
| 2026-05-06 20:00 | 48.60864 | 16.98615 | 16367 ft | 308 kts | 235° |
| 2026-05-06 20:00 | 48.59708 | 16.95969 | 16162 ft | 300 kts | 234° |
| 2026-05-06 20:00 | 48.58833 | 16.93137 | 15941 ft | 298 kts | 255° |
| 2026-05-06 20:01 | 48.58613 | 16.90040 | 15742 ft | 294 kts | 261° |
| 2026-05-06 20:01 | 48.58432 | 16.87002 | 15533 ft | 287 kts | 261° |
| 2026-05-06 20:01 | 48.58263 | 16.84030 | 15325 ft | 282 kts | 261° |
| 2026-05-06 20:01 | 48.58103 | 16.81110 | 15120 ft | 276 kts | 261° |
| 2026-05-06 20:02 | 48.57949 | 16.78261 | 14919 ft | 270 kts | 260° |
| 2026-05-06 20:02 | 48.57801 | 16.75480 | 14790 ft | 261 kts | 260° |
| 2026-05-06 20:02 | 48.57656 | 16.72767 | 14786 ft | 258 kts | 260° |
| 2026-05-06 20:02 | 48.57513 | 16.70067 | 14755 ft | 257 kts | 260° |
| 2026-05-06 20:03 | 48.57598 | 16.67356 | 14745 ft | 264 kts | 281° |
| 2026-05-06 20:03 | 48.58494 | 16.64907 | 14743 ft | 274 kts | 307° |
| 2026-05-06 20:03 | 48.59902 | 16.62913 | 14768 ft | 280 kts | 312° |
| 2026-05-06 20:03 | 48.61275 | 16.60852 | 14753 ft | 276 kts | 304° |
| 2026-05-06 20:04 | 48.62499 | 16.58627 | 14751 ft | 276 kts | 303° |
| 2026-05-06 20:04 | 48.63734 | 16.56430 | 14748 ft | 278 kts | 311° |
| 2026-05-06 20:04 | 48.65441 | 16.55008 | 14694 ft | 289 kts | 345° |
| 2026-05-06 20:04 | 48.67448 | 16.55230 | 14700 ft | 297 kts | 21° |
| 2026-05-06 20:05 | 48.69076 | 16.57105 | 14708 ft | 297 kts | 58° |
| 2026-05-06 20:05 | 48.69748 | 16.59973 | 14716 ft | 288 kts | 95° |
| 2026-05-06 20:05 | 48.69292 | 16.62759 | 14724 ft | 273 kts | 128° |
| 2026-05-06 20:05 | 48.68006 | 16.64758 | 14742 ft | 262 kts | 155° |
| 2026-05-06 20:06 | 48.66342 | 16.65745 | 14759 ft | 257 kts | 168° |
| 2026-05-06 20:06 | 48.64610 | 16.66477 | 14750 ft | 258 kts | 170° |
| 2026-05-06 20:06 | 48.62869 | 16.67144 | 14750 ft | 258 kts | 171° |
| 2026-05-06 20:06 | 48.61119 | 16.67763 | 14751 ft | 258 kts | 172° |
| 2026-05-06 20:07 | 48.59367 | 16.68353 | 14760 ft | 258 kts | 172° |
| 2026-05-06 20:07 | 48.57618 | 16.68925 | 14746 ft | 257 kts | 172° |
| 2026-05-06 20:07 | 48.55878 | 16.69072 | 14733 ft | 247 kts | 194° |
| 2026-05-06 20:07 | 48.54333 | 16.68057 | 14749 ft | 244 kts | 218° |
| 2026-05-06 20:08 | 48.53245 | 16.66100 | 14757 ft | 248 kts | 241° |
| 2026-05-06 20:08 | 48.52793 | 16.63562 | 14749 ft | 256 kts | 263° |
| 2026-05-06 20:08 | 48.53046 | 16.60905 | 14746 ft | 266 kts | 285° |
| 2026-05-06 20:08 | 48.54012 | 16.58478 | 14749 ft | 277 kts | 308° |
| 2026-05-06 20:09 | 48.55606 | 16.56774 | 14753 ft | 287 kts | 334° |
| 2026-05-06 20:09 | 48.57559 | 16.56012 | 14769 ft | 293 kts | 342° |
| 2026-05-06 20:09 | 48.59544 | 16.55314 | 14752 ft | 293 kts | 342° |
| 2026-05-06 20:09 | 48.61526 | 16.54617 | 14753 ft | 293 kts | 342° |
| 2026-05-06 20:10 | 48.63516 | 16.53938 | 14742 ft | 294 kts | 347° |
| 2026-05-06 20:10 | 48.65559 | 16.54133 | 14543 ft | 300 kts | 18° |
| 2026-05-06 20:10 | 48.67290 | 16.55837 | 14268 ft | 299 kts | 51° |
| 2026-05-06 20:10 | 48.68233 | 16.58557 | 14010 ft | 291 kts | 82° |
| 2026-05-06 20:11 | 48.68218 | 16.61522 | 13758 ft | 279 kts | 111° |
| 2026-05-06 20:11 | 48.67360 | 16.64042 | 13504 ft | 265 kts | 137° |
| 2026-05-06 20:11 | 48.65935 | 16.65703 | 13242 ft | 255 kts | 160° |
| 2026-05-06 20:11 | 48.64272 | 16.66528 | 13004 ft | 251 kts | 169° |
| 2026-05-06 20:12 | 48.62579 | 16.67198 | 12768 ft | 251 kts | 170° |
| 2026-05-06 20:12 | 48.60885 | 16.67813 | 12522 ft | 250 kts | 171° |
| 2026-05-06 20:12 | 48.59189 | 16.68393 | 12281 ft | 249 kts | 171° |
| 2026-05-06 20:12 | 48.57491 | 16.68954 | 12047 ft | 248 kts | 172° |
| 2026-05-06 20:13 | 48.55808 | 16.69007 | 11799 ft | 240 kts | 196° |
| 2026-05-06 20:13 | 48.54349 | 16.67903 | 11555 ft | 236 kts | 221° |
| 2026-05-06 20:13 | 48.53391 | 16.65904 | 11343 ft | 239 kts | 245° |
| 2026-05-06 20:13 | 48.53090 | 16.63425 | 11103 ft | 247 kts | 269° |
| 2026-05-06 20:14 | 48.53497 | 16.60882 | 10865 ft | 255 kts | 292° |
| 2026-05-06 20:14 | 48.54568 | 16.58731 | 10627 ft | 263 kts | 315° |
| 2026-05-06 20:14 | 48.56163 | 16.57408 | 10380 ft | 270 kts | 340° |
| 2026-05-06 20:14 | 48.57995 | 16.56729 | 10153 ft | 271 kts | 342° |
| 2026-05-06 20:15 | 48.59828 | 16.56064 | 9993 ft | 270 kts | 342° |
| 2026-05-06 20:15 | 48.61649 | 16.55409 | 9972 ft | 270 kts | 343° |
| 2026-05-06 20:15 | 48.63493 | 16.54811 | 9972 ft | 272 kts | 351° |
| 2026-05-06 20:15 | 48.65369 | 16.55162 | 9932 ft | 274 kts | 22° |
| 2026-05-06 20:16 | 48.66886 | 16.56858 | 9954 ft | 274 kts | 53° |
| 2026-05-06 20:16 | 48.67691 | 16.59410 | 9963 ft | 269 kts | 83° |
| 2026-05-06 20:16 | 48.67629 | 16.62173 | 9886 ft | 262 kts | 111° |
| 2026-05-06 20:16 | 48.66771 | 16.64529 | 9704 ft | 252 kts | 138° |
| 2026-05-06 20:17 | 48.65370 | 16.66017 | 9453 ft | 244 kts | 162° |
| 2026-05-06 20:17 | 48.63751 | 16.66712 | 9220 ft | 242 kts | 170° |
| 2026-05-06 20:17 | 48.62130 | 16.67302 | 8983 ft | 242 kts | 170° |
| 2026-05-06 20:17 | 48.60470 | 16.67907 | 8732 ft | 242 kts | 169° |
| 2026-05-06 20:18 | 48.58833 | 16.68509 | 8487 ft | 242 kts | 169° |
| 2026-05-06 20:18 | 48.57210 | 16.69104 | 8223 ft | 242 kts | 170° |
| 2026-05-06 20:18 | 48.55578 | 16.69702 | 7939 ft | 240 kts | 170° |
| 2026-05-06 20:18 | 48.53962 | 16.70294 | 7668 ft | 238 kts | 170° |
| 2026-05-06 20:19 | 48.52353 | 16.70883 | 7386 ft | 237 kts | 170° |
| 2026-05-06 20:19 | 48.50758 | 16.71467 | 7114 ft | 235 kts | 171° |
| 2026-05-06 20:19 | 48.49198 | 16.72038 | 7009 ft | 226 kts | 171° |
| 2026-05-06 20:19 | 48.47692 | 16.72588 | 7005 ft | 222 kts | 171° |
| 2026-05-06 20:20 | 48.46190 | 16.73136 | 6987 ft | 222 kts | 171° |
| 2026-05-06 20:20 | 48.44690 | 16.73682 | 6978 ft | 222 kts | 171° |
| 2026-05-06 20:20 | 48.43191 | 16.74229 | 6989 ft | 222 kts | 171° |
| 2026-05-06 20:20 | 48.42198 | 16.74591 | 6988 ft | 221 kts | 171° |
| 2026-05-06 20:21 | 48.40703 | 16.75134 | 6981 ft | 221 kts | 171° |
| 2026-05-06 20:21 | 48.38734 | 16.75849 | 6982 ft | 221 kts | 171° |
| 2026-05-06 20:21 | 48.37241 | 16.76391 | 6984 ft | 221 kts | 171° |
| 2026-05-06 20:21 | 48.35747 | 16.76934 | 6983 ft | 221 kts | 171° |
| 2026-05-06 20:22 | 48.34739 | 16.77300 | 6985 ft | 221 kts | 171° |
| 2026-05-06 20:22 | 48.33243 | 16.77843 | 6984 ft | 222 kts | 171° |
| 2026-05-06 20:22 | 48.31741 | 16.78387 | 6989 ft | 222 kts | 171° |
| 2026-05-06 20:22 | 48.30248 | 16.78928 | 6908 ft | 222 kts | 171° |
| 2026-05-06 20:23 | 48.28764 | 16.79020 | 6708 ft | 212 kts | 201° |
| 2026-05-06 20:23 | 48.27571 | 16.77852 | 6585 ft | 206 kts | 227° |
| 2026-05-06 20:23 | 48.26785 | 16.76050 | 6455 ft | 209 kts | 245° |
| 2026-05-06 20:23 | 48.26518 | 16.73900 | 6291 ft | 214 kts | 268° |
| 2026-05-06 20:24 | 48.26915 | 16.71733 | 6114 ft | 224 kts | 293° |
| 2026-05-06 20:24 | 48.27983 | 16.69973 | 5993 ft | 232 kts | 317° |
| 2026-05-06 20:24 | 48.29266 | 16.68557 | 5992 ft | 227 kts | 315° |
| 2026-05-06 20:24 | 48.30519 | 16.67128 | 5992 ft | 226 kts | 315° |
| 2026-05-06 20:25 | 48.31846 | 16.65842 | 5969 ft | 233 kts | 335° |
| 2026-05-06 20:25 | 48.33451 | 16.65602 | 5941 ft | 241 kts | 7° |
| 2026-05-06 20:25 | 48.35088 | 16.66262 | 6005 ft | 246 kts | 15° |
| 2026-05-06 20:25 | 48.36720 | 16.67043 | 6028 ft | 246 kts | 15° |
| 2026-05-06 20:26 | 48.38355 | 16.67830 | 6002 ft | 247 kts | 15° |
| 2026-05-06 20:26 | 48.39992 | 16.68616 | 5989 ft | 247 kts | 15° |
| 2026-05-06 20:26 | 48.41624 | 16.69406 | 5980 ft | 246 kts | 15° |
| 2026-05-06 20:26 | 48.43262 | 16.70182 | 5977 ft | 247 kts | 15° |
| 2026-05-06 20:27 | 48.44899 | 16.70958 | 5988 ft | 247 kts | 15° |
| 2026-05-06 20:27 | 48.46532 | 16.71752 | 5981 ft | 246 kts | 15° |
| 2026-05-06 20:27 | 48.48164 | 16.72549 | 5978 ft | 246 kts | 15° |
| 2026-05-06 20:27 | 48.49809 | 16.73231 | 5957 ft | 244 kts | 4° |
| 2026-05-06 20:28 | 48.51491 | 16.73357 | 5981 ft | 242 kts | 356° |
| 2026-05-06 20:28 | 48.53180 | 16.73334 | 6017 ft | 242 kts | 355° |
| 2026-05-06 20:28 | 48.54856 | 16.73291 | 5992 ft | 241 kts | 355° |
| 2026-05-06 20:28 | 48.56510 | 16.73247 | 5985 ft | 241 kts | 355° |
| 2026-05-06 20:29 | 48.58189 | 16.73202 | 5983 ft | 241 kts | 355° |
| 2026-05-06 20:29 | 48.59865 | 16.73160 | 5975 ft | 241 kts | 355° |
| 2026-05-06 20:29 | 48.61542 | 16.73117 | 5962 ft | 240 kts | 355° |
| 2026-05-06 20:29 | 48.63182 | 16.72842 | 5940 ft | 234 kts | 334° |
| 2026-05-06 20:30 | 48.64454 | 16.71502 | 6038 ft | 219 kts | 305° |
| 2026-05-06 20:30 | 48.66235 | 16.67829 | 5997 ft | 217 kts | 299° |
| 2026-05-06 20:30 | 48.66741 | 16.65763 | 5924 ft | 206 kts | 268° |
| 2026-05-06 20:31 | 48.66395 | 16.63729 | 5958 ft | 200 kts | 239° |
| 2026-05-06 20:31 | 48.65487 | 16.62134 | 5975 ft | 203 kts | 219° |
| 2026-05-06 20:31 | 48.64335 | 16.60892 | 6001 ft | 199 kts | 215° |
| 2026-05-06 20:31 | 48.63223 | 16.59758 | 5908 ft | 187 kts | 215° |
| 2026-05-06 20:32 | 48.62159 | 16.58687 | 5716 ft | 182 kts | 215° |
| 2026-05-06 20:32 | 48.61098 | 16.57649 | 5505 ft | 181 kts | 210° |
| 2026-05-06 20:32 | 48.59927 | 16.56918 | 5292 ft | 183 kts | 202° |
| 2026-05-06 20:32 | 48.58710 | 16.56340 | 5114 ft | 183 kts | 201° |
| 2026-05-06 20:33 | 48.57494 | 16.55807 | 4979 ft | 182 kts | 201° |
| 2026-05-06 20:33 | 48.56283 | 16.55276 | 4971 ft | 181 kts | 199° |
| 2026-05-06 20:33 | 48.55060 | 16.54732 | 5000 ft | 184 kts | 200° |
| 2026-05-06 20:33 | 48.53826 | 16.54183 | 4974 ft | 186 kts | 200° |
| 2026-05-06 20:34 | 48.52585 | 16.53653 | 4976 ft | 188 kts | 200° |
| 2026-05-06 20:34 | 48.51331 | 16.53112 | 4980 ft | 188 kts | 200° |
| 2026-05-06 20:34 | 48.50077 | 16.52568 | 4972 ft | 187 kts | 200° |
| 2026-05-06 20:34 | 48.48820 | 16.52029 | 4970 ft | 188 kts | 200° |
| 2026-05-06 20:35 | 48.47564 | 16.51478 | 4977 ft | 188 kts | 200° |
| 2026-05-06 20:35 | 48.46307 | 16.50921 | 4981 ft | 188 kts | 200° |
| 2026-05-06 20:35 | 48.45048 | 16.50376 | 4983 ft | 188 kts | 200° |
| 2026-05-06 20:35 | 48.43799 | 16.49839 | 4978 ft | 188 kts | 200° |
| 2026-05-06 20:36 | 48.42545 | 16.49289 | 4985 ft | 187 kts | 200° |
| 2026-05-06 20:36 | 48.41294 | 16.48744 | 4979 ft | 187 kts | 200° |
| 2026-05-06 20:36 | 48.40045 | 16.48200 | 4982 ft | 186 kts | 200° |
| 2026-05-06 20:36 | 48.38797 | 16.47651 | 4985 ft | 187 kts | 200° |
| 2026-05-06 20:37 | 48.37519 | 16.47236 | 4972 ft | 191 kts | 185° |
| 2026-05-06 20:37 | 48.36188 | 16.47504 | 4995 ft | 195 kts | 171° |
| 2026-05-06 20:37 | 48.34874 | 16.48048 | 5005 ft | 197 kts | 169° |
| 2026-05-06 20:37 | 48.33598 | 16.48605 | 4874 ft | 187 kts | 169° |
| 2026-05-06 20:38 | 48.32395 | 16.49128 | 4670 ft | 175 kts | 171° |
| 2026-05-06 20:38 | 48.31231 | 16.49626 | 4441 ft | 171 kts | 171° |
| 2026-05-06 20:38 | 48.30090 | 16.50112 | 4225 ft | 170 kts | 171° |
| 2026-05-06 20:38 | 48.28961 | 16.50593 | 4007 ft | 167 kts | 171° |
| 2026-05-06 20:39 | 48.27852 | 16.51066 | 3803 ft | 162 kts | 172° |
| 2026-05-06 20:39 | 48.26814 | 16.51509 | 3587 ft | 154 kts | 173° |
| 2026-05-06 20:39 | 48.25791 | 16.51945 | 3392 ft | 149 kts | 173° |
| 2026-05-06 20:39 | 48.24799 | 16.52368 | 3201 ft | 147 kts | 173° |
| 2026-05-06 20:40 | 48.23854 | 16.52775 | 3015 ft | 135 kts | 174° |
| 2026-05-06 20:40 | 48.22986 | 16.53140 | 2948 ft | 127 kts | 175° |
| 2026-05-06 20:40 | 48.22103 | 16.53489 | 2785 ft | 136 kts | 174° |
| 2026-05-06 20:40 | 48.21186 | 16.53917 | 2632 ft | 137 kts | 171° |
| 2026-05-06 20:41 | 48.20332 | 16.54350 | 2346 ft | 123 kts | 174° |
| 2026-05-06 20:41 | 48.19516 | 16.54649 | 2111 ft | 120 kts | 178° |
| 2026-05-06 20:41 | 48.18686 | 16.54832 | 1979 ft | 122 kts | 177° |
| 2026-05-06 20:41 | 48.17849 | 16.55273 | 1831 ft | 132 kts | 166° |
| 2026-05-06 20:42 | 48.16982 | 16.55770 | 1676 ft | 133 kts | 168° |
| 2026-05-06 20:42 | 48.16101 | 16.56156 | 1490 ft | 133 kts | 170° |
| 2026-05-06 20:42 | 48.15187 | 16.56435 | 1306 ft | 134 kts | 169° |
| 2026-05-06 20:42 | 48.14288 | 16.56823 | 1171 ft | 138 kts | 164° |
| 2026-05-06 20:43 | 48.13336 | 16.57234 | 948 ft | 144 kts | 166° |
| 2026-05-06 20:43 | 48.12378 | 16.57646 | 752 ft | 141 kts | 165° |
| 2026-05-06 20:43 | 48.11487 | 16.58027 | 628 ft | 125 kts | 166° |
| 2026-05-06 20:43 | 48.10756 | 16.58333 | 621 ft | 89 kts | 164° |
| 2026-05-06 20:44 | 48.10282 | 16.58531 | 624 ft | 59 kts | 163° |
| 2026-05-06 20:44 | 48.10001 | 16.58622 | 627 ft | 32 kts | 183° |
| 2026-05-06 20:44 | 48.09773 | 16.58579 | 619 ft | 30 kts | 189° |
| 2026-05-06 20:44 | 48.09641 | 16.58511 | 623 ft | 17 kts | 234° |
| 2026-05-06 20:45 | 48.09684 | 16.58369 | 617 ft | 18 kts | 338° |
| 2026-05-06 20:45 | 48.09812 | 16.58316 | 620 ft | 20 kts | 345° |
| 2026-05-06 20:45 | 48.09953 | 16.58256 | 623 ft | 22 kts | 344° |
| 2026-05-06 20:45 | 48.10109 | 16.58189 | 617 ft | 24 kts | 343° |
| 2026-05-06 20:46 | 48.10274 | 16.58119 | 619 ft | 26 kts | 344° |
| 2026-05-06 20:46 | 48.10454 | 16.58044 | 623 ft | 28 kts | 344° |
| 2026-05-06 20:46 | 48.10645 | 16.57963 | 626 ft | 30 kts | 344° |
| 2026-05-06 20:46 | 48.10849 | 16.57877 | 620 ft | 31 kts | 344° |
| 2026-05-06 20:47 | 48.11021 | 16.57799 | 613 ft | 18 kts | 329° |
| 2026-05-06 20:47 | 48.11092 | 16.57635 | 618 ft | 20 kts | 296° |
| 2026-05-06 20:47 | 48.11156 | 16.57439 | 625 ft | 22 kts | 296° |
| 2026-05-06 20:47 | 48.11226 | 16.57223 | 613 ft | 24 kts | 296° |
| 2026-05-06 20:48 | 48.11302 | 16.56990 | 620 ft | 26 kts | 296° |
| 2026-05-06 20:48 | 48.11384 | 16.56739 | 617 ft | 28 kts | 296° |
| 2026-05-06 20:48 | 48.11465 | 16.56488 | 625 ft | 26 kts | 296° |
| 2026-05-06 20:48 | 48.11547 | 16.56236 | 622 ft | 28 kts | 295° |
| 2026-05-06 20:49 | 48.11632 | 16.55978 | 621 ft | 26 kts | 296° |
| 2026-05-06 20:49 | 48.11713 | 16.55725 | 617 ft | 27 kts | 296° |
| 2026-05-06 20:49 | 48.11784 | 16.55508 | 617 ft | 21 kts | 295° |
| 2026-05-06 20:49 | 48.11860 | 16.55430 | 616 ft | 15 kts | 9° |
| 2026-05-06 20:50 | 48.11964 | 16.55474 | 621 ft | 16 kts | 26° |
| 2026-05-06 20:50 | 48.12066 | 16.55547 | 623 ft | 12 kts | 25° |
| 2026-05-06 20:50 | 48.12112 | 16.55530 | 620 ft | 7 kts | 298° |
| 2026-05-06 20:50 | 48.12121 | 16.55502 | 626 ft | 1 kts | 297° |
| 2026-05-06 20:51 | 48.12122 | 16.55500 | 626 ft | 0 kts | 297° |